createdAt,value
2023-05-19T00:00:37.569Z,2.60
2023-05-19T00:03:04.739Z,2.45
2023-05-19T00:05:32.154Z,3.58
2023-05-19T00:07:59.905Z,2.58
2023-05-19T00:10:27.048Z,2.78
2023-05-19T00:12:55.325Z,2.63
2023-05-19T00:15:22.610Z,2.83
2023-05-19T00:17:49.581Z,2.65
2023-05-19T00:20:16.203Z,2.33
2023-05-19T00:22:42.803Z,3.25
2023-05-19T00:25:10.162Z,2.90
2023-05-19T00:27:36.843Z,2.65
2023-05-19T00:30:05.987Z,2.60
2023-05-19T00:32:32.676Z,3.00
2023-05-19T00:34:59.682Z,2.67
2023-05-19T00:37:26.361Z,3.20
2023-05-19T00:39:52.926Z,2.85
2023-05-19T00:42:20.833Z,3.72
2023-05-19T00:44:47.403Z,2.50
2023-05-19T00:47:15.418Z,3.28
2023-05-19T00:49:42.018Z,3.75
2023-05-19T00:52:08.770Z,2.67
2023-05-19T00:54:35.921Z,2.63
2023-05-19T00:57:03.318Z,2.70
2023-05-19T00:59:30.022Z,2.67
2023-05-19T01:01:57.381Z,2.30
2023-05-19T01:04:25.656Z,2.33
2023-05-19T01:06:52.340Z,2.45
2023-05-19T01:09:19.750Z,2.60
2023-05-19T01:11:46.352Z,2.78
2023-05-19T01:14:13.085Z,2.42
2023-05-19T01:16:43.284Z,2.38
2023-05-19T01:19:20.876Z,2.95
2023-05-19T01:22:27.184Z,2.22
2023-05-19T01:25:18.315Z,3.33
2023-05-19T01:28:11.986Z,2.70
2023-05-19T01:30:42.075Z,2.80
2023-05-19T01:33:11.514Z,2.85
2023-05-19T01:35:40.283Z,2.72
2023-05-19T01:38:09.449Z,2.38
2023-05-19T01:40:37.520Z,2.60
2023-05-19T01:43:05.051Z,2.50
2023-05-19T01:45:33.768Z,2.60
2023-05-19T01:48:04.321Z,2.63
2023-05-19T01:50:32.429Z,2.95
2023-05-19T01:53:00.514Z,2.63
2023-05-19T01:55:27.520Z,2.65
2023-05-19T01:58:02.918Z,2.50
2023-05-19T02:00:42.322Z,4.72
2023-05-19T02:03:22.498Z,2.53
2023-05-19T02:05:55.435Z,2.63
2023-05-19T02:08:30.086Z,2.80
2023-05-19T02:11:02.456Z,2.30
2023-05-19T02:13:33.634Z,2.58
2023-05-19T02:16:05.240Z,3.25
2023-05-19T02:18:33.807Z,3.08
2023-05-19T02:21:00.387Z,3.00
2023-05-19T02:23:27.223Z,3.25
2023-05-19T02:25:53.886Z,2.70
2023-05-19T02:28:20.549Z,2.97
2023-05-19T02:30:47.155Z,3.10
2023-05-19T02:33:13.913Z,2.63
2023-05-19T02:35:43.940Z,2.80
2023-05-19T02:38:10.537Z,2.60
2023-05-19T02:40:37.172Z,3.00
2023-05-19T02:43:03.858Z,2.95
2023-05-19T02:45:30.479Z,2.22
2023-05-19T02:47:57.512Z,2.50
2023-05-19T02:50:25.264Z,2.72
2023-05-19T02:52:53.533Z,2.60
2023-05-19T02:55:20.244Z,2.45
2023-05-19T02:57:46.888Z,2.58
2023-05-19T03:00:14.327Z,2.30
2023-05-19T03:02:41.381Z,2.50
2023-05-19T03:05:09.037Z,2.55
2023-05-19T03:07:35.972Z,2.40
2023-05-19T03:10:04.666Z,2.03
2023-05-19T03:12:31.394Z,2.40
2023-05-19T03:14:58.277Z,2.47
2023-05-19T03:17:25.245Z,2.28
2023-05-19T03:19:51.864Z,2.45
2023-05-19T03:22:18.491Z,2.60
2023-05-19T03:24:45.055Z,3.10
2023-05-19T03:27:13.324Z,3.05
2023-05-19T03:29:39.905Z,2.72
2023-05-19T03:32:07.141Z,2.60
2023-05-19T03:34:33.908Z,2.53
2023-05-19T03:37:00.949Z,2.35
2023-05-19T03:39:27.569Z,2.58
2023-05-19T03:41:54.276Z,2.33
2023-05-19T03:44:22.426Z,2.28
2023-05-19T03:46:49.139Z,2.38
2023-05-19T03:49:18.840Z,2.92
2023-05-19T03:51:57.494Z,3.20
2023-05-19T03:54:31.813Z,2.67
2023-05-19T03:56:58.694Z,2.70
2023-05-19T03:59:26.608Z,2.40
2023-05-19T04:01:53.288Z,2.60
2023-05-19T04:04:20.027Z,2.40
2023-05-19T04:06:46.691Z,2.40
2023-05-19T04:09:16.029Z,2.75
2023-05-19T04:11:43.184Z,2.58
2023-05-19T04:14:09.813Z,2.20
2023-05-19T04:16:38.192Z,2.45
2023-05-19T04:19:04.897Z,2.40
2023-05-19T04:21:31.656Z,2.00
2023-05-19T04:23:58.277Z,2.40
2023-05-19T04:26:26.032Z,2.35
2023-05-19T04:28:52.815Z,2.50
2023-05-19T04:31:19.672Z,2.03
2023-05-19T04:33:47.769Z,2.10
2023-05-19T04:36:14.826Z,1.90
2023-05-19T04:38:43.213Z,2.10
2023-05-19T04:41:11.543Z,2.00
2023-05-19T04:43:39.771Z,1.95
2023-05-19T04:46:06.621Z,1.90
2023-05-19T04:48:33.610Z,2.05
2023-05-19T04:51:01.623Z,2.30
2023-05-19T04:53:28.564Z,2.10
2023-05-19T04:55:55.758Z,2.53
2023-05-19T04:58:22.795Z,3.15
2023-05-19T05:00:49.447Z,2.70
2023-05-19T05:03:16.391Z,2.63
2023-05-19T05:05:43.224Z,2.00
2023-05-19T05:08:11.911Z,2.35
2023-05-19T05:10:42.501Z,2.60
2023-05-19T05:13:11.194Z,2.25
2023-05-19T05:15:39.287Z,2.17
2023-05-19T05:18:07.515Z,2.25
2023-05-19T05:20:35.431Z,2.70
2023-05-19T05:23:02.699Z,2.90
2023-05-19T05:25:33.421Z,2.15
2023-05-19T05:28:00.301Z,2.58
2023-05-19T05:30:27.478Z,2.85
2023-05-19T05:32:54.467Z,2.88
2023-05-19T05:35:30.333Z,2.97
2023-05-19T05:37:57.232Z,2.58
2023-05-19T05:40:24.646Z,2.40
2023-05-19T05:42:53.543Z,2.45
2023-05-19T05:45:22.101Z,2.90
2023-05-19T05:47:53.023Z,2.53
2023-05-19T05:50:20.350Z,2.92
2023-05-19T05:52:48.251Z,2.28
2023-05-19T05:55:17.960Z,2.42
2023-05-19T05:57:44.858Z,2.33
2023-05-19T06:00:13.709Z,2.97
2023-05-19T06:02:43.027Z,2.58
2023-05-19T06:05:10.156Z,2.90
2023-05-19T06:07:36.811Z,2.20
2023-05-19T06:10:04.596Z,2.47
2023-05-19T06:12:31.624Z,2.38
2023-05-19T06:14:58.558Z,2.70
2023-05-19T06:17:41.434Z,2.70
2023-05-19T06:20:09.112Z,2.60
2023-05-19T06:22:36.094Z,2.28
2023-05-19T06:25:04.320Z,2.47
2023-05-19T06:27:32.644Z,2.72
2023-05-19T06:30:01.467Z,2.72
2023-05-19T06:32:31.757Z,2.45
2023-05-19T06:35:01.683Z,2.42
2023-05-19T06:37:28.266Z,2.53
2023-05-19T06:39:55.724Z,2.50
2023-05-19T06:42:22.424Z,2.20
2023-05-19T06:44:56.548Z,2.13
2023-05-19T06:47:23.820Z,2.50
2023-05-19T06:49:51.841Z,2.60
2023-05-19T06:52:20.043Z,2.20
2023-05-19T06:54:46.681Z,2.38
2023-05-19T06:57:13.279Z,2.17
2023-05-19T06:59:40.049Z,2.00
2023-05-19T07:02:07.389Z,2.17
2023-05-19T07:04:34.750Z,2.30
2023-05-19T07:07:01.433Z,2.15
2023-05-19T07:09:30.287Z,1.88
2023-05-19T07:11:57.074Z,2.33
2023-05-19T07:14:23.677Z,2.10
2023-05-19T07:16:51.001Z,1.80
2023-05-19T07:19:18.067Z,2.05
2023-05-19T07:21:44.904Z,2.40
2023-05-19T07:24:11.501Z,1.90
2023-05-19T07:26:40.072Z,1.88
2023-05-19T07:29:06.718Z,1.90
2023-05-19T07:31:33.849Z,1.88
2023-05-19T07:34:00.480Z,1.95
2023-05-19T07:36:27.235Z,1.88
2023-05-19T07:38:53.807Z,2.55
2023-05-19T07:41:20.513Z,1.50
2023-05-19T07:43:48.503Z,1.52
2023-05-19T07:46:15.171Z,1.92
2023-05-19T07:48:41.788Z,1.40
2023-05-19T07:51:08.673Z,1.80
2023-05-19T07:53:35.370Z,1.60
2023-05-19T07:56:02.025Z,1.58
2023-05-19T07:58:28.788Z,1.60
2023-05-19T08:00:58.186Z,1.73
2023-05-19T08:03:25.415Z,1.92
2023-05-19T08:05:52.083Z,1.52
2023-05-19T08:08:18.739Z,1.60
2023-05-19T08:10:45.797Z,1.60
2023-05-19T08:13:12.652Z,1.40
2023-05-19T08:15:39.549Z,1.65
2023-05-19T08:18:07.573Z,1.83
2023-05-19T08:20:34.396Z,2.08
2023-05-19T08:23:01.197Z,1.45
2023-05-19T08:25:27.780Z,2.55
2023-05-19T08:27:54.398Z,1.70
2023-05-19T08:30:21.342Z,1.55
2023-05-19T08:32:47.976Z,1.75
2023-05-19T08:35:15.916Z,1.60
2023-05-19T08:37:42.497Z,1.60
2023-05-19T08:40:15.776Z,1.58
2023-05-19T08:42:42.476Z,2.00
2023-05-19T08:45:09.859Z,1.70
2023-05-19T08:47:36.850Z,1.75
2023-05-19T08:50:06.015Z,1.50
2023-05-19T08:52:42.651Z,1.80
2023-05-19T08:55:15.468Z,1.60
2023-05-19T08:57:42.204Z,1.40
2023-05-19T09:00:10.398Z,1.75
2023-05-19T09:02:46.623Z,1.80
2023-05-19T09:05:23.082Z,1.52
2023-05-19T09:07:51.075Z,1.42
2023-05-19T09:10:17.909Z,1.30
2023-05-19T09:12:46.288Z,1.60
2023-05-19T09:15:13.952Z,2.20
2023-05-19T09:17:40.616Z,1.30
2023-05-19T09:20:08.213Z,1.45
2023-05-19T09:22:34.891Z,1.40
2023-05-19T09:25:02.859Z,1.50
2023-05-19T09:27:31.230Z,1.13
2023-05-19T09:30:07.357Z,1.60
2023-05-19T09:32:35.425Z,1.15
2023-05-19T09:35:02.853Z,1.30
2023-05-19T09:37:30.909Z,1.13
2023-05-19T09:39:57.646Z,1.23
2023-05-19T09:42:26.185Z,1.58
2023-05-19T09:44:59.294Z,1.42
2023-05-19T09:47:26.058Z,1.50
2023-05-19T09:49:53.847Z,1.45
2023-05-19T09:52:20.718Z,1.10
2023-05-19T09:54:48.586Z,1.48
2023-05-19T09:57:15.761Z,2.00
2023-05-19T09:59:44.575Z,1.50
2023-05-19T10:02:16.528Z,1.30
2023-05-19T10:04:43.994Z,1.40
2023-05-19T10:07:12.466Z,1.73
2023-05-19T10:09:40.921Z,1.42
2023-05-19T10:12:08.950Z,1.38
2023-05-19T10:14:36.529Z,2.28
2023-05-19T10:17:05.197Z,1.17
2023-05-19T10:19:31.959Z,1.15
2023-05-19T10:21:58.619Z,1.25
2023-05-19T10:24:25.237Z,1.40
2023-05-19T10:26:57.694Z,1.42
2023-05-19T10:29:28.151Z,1.45
2023-05-19T10:31:58.655Z,1.37
2023-05-19T10:34:47.714Z,1.63
2023-05-19T10:37:24.208Z,1.20
2023-05-19T10:39:51.255Z,1.70
2023-05-19T10:42:29.304Z,1.02
2023-05-19T10:45:03.251Z,1.33
2023-05-19T10:47:30.125Z,1.40
2023-05-19T10:50:00.555Z,1.60
2023-05-19T10:52:27.232Z,1.23
2023-05-19T10:54:54.150Z,1.40
2023-05-19T10:57:26.092Z,1.23
2023-05-19T10:59:52.771Z,1.48
2023-05-19T11:02:39.684Z,1.20
2023-05-19T11:05:11.779Z,1.30
2023-05-19T11:07:41.683Z,1.38
2023-05-19T11:10:08.923Z,1.45
2023-05-19T11:12:45.585Z,1.23
2023-05-19T11:15:13.809Z,1.50
2023-05-19T11:17:41.251Z,1.38
2023-05-19T11:20:20.230Z,1.52
2023-05-19T11:23:01.509Z,1.33
2023-05-19T11:25:41.337Z,1.38
2023-05-19T11:28:08.629Z,1.65
2023-05-19T11:30:35.321Z,1.30
2023-05-19T11:33:02.721Z,1.60
2023-05-19T11:35:34.662Z,1.25
2023-05-19T11:38:03.421Z,1.35
2023-05-19T11:40:30.683Z,1.35
2023-05-19T11:42:57.810Z,1.60
2023-05-19T11:45:25.035Z,2.03
2023-05-19T11:48:01.124Z,1.90
2023-05-19T11:50:31.061Z,1.50
2023-05-19T11:52:59.971Z,1.83
2023-05-19T11:55:26.911Z,1.52
2023-05-19T11:58:04.018Z,1.20
2023-05-19T12:00:36.100Z,2.10
2023-05-19T12:03:02.969Z,1.75
2023-05-19T12:05:32.469Z,1.30
2023-05-19T12:08:01.226Z,1.30
2023-05-19T12:10:28.985Z,1.20
2023-05-19T12:12:56.243Z,1.27
2023-05-19T12:15:24.016Z,1.10
2023-05-19T12:17:51.066Z,2.10
2023-05-19T12:20:18.956Z,1.20
2023-05-19T12:22:47.794Z,1.30
2023-05-19T12:25:15.437Z,1.38
2023-05-19T12:27:43.796Z,1.25
2023-05-19T12:30:11.373Z,1.33
2023-05-19T12:32:38.691Z,1.10
2023-05-19T12:35:06.363Z,1.20
2023-05-19T12:37:33.451Z,1.15
2023-05-19T12:40:01.968Z,1.10
2023-05-19T12:42:29.301Z,1.42
2023-05-19T12:44:55.836Z,1.33
2023-05-19T12:47:22.570Z,1.38
2023-05-19T12:49:55.196Z,1.40
2023-05-19T12:52:21.898Z,1.48
2023-05-19T12:54:48.611Z,1.35
2023-05-19T12:57:17.696Z,1.27
2023-05-19T12:59:44.879Z,1.40
2023-05-19T13:02:11.492Z,1.40
2023-05-19T13:04:38.149Z,1.38
2023-05-19T13:07:04.806Z,1.20
2023-05-19T13:09:31.370Z,1.30
2023-05-19T13:11:59.436Z,1.00
2023-05-19T13:14:27.559Z,1.10
2023-05-19T13:16:54.170Z,1.92
2023-05-19T13:21:50.288Z,1.13
2023-05-19T13:24:17.143Z,1.20
2023-05-19T13:26:43.741Z,0.80
2023-05-19T13:29:10.314Z,1.38
2023-05-19T13:31:38.342Z,1.25
2023-05-19T13:34:05.046Z,1.17
2023-05-19T13:36:31.717Z,1.25
2023-05-19T13:38:58.482Z,1.00
2023-05-19T13:41:25.194Z,1.50
2023-05-19T13:43:52.112Z,1.30
2023-05-19T13:46:22.177Z,1.45
2023-05-19T13:48:54.776Z,1.13
2023-05-19T13:51:21.368Z,0.98
2023-05-19T13:53:48.006Z,1.25
2023-05-19T13:56:14.564Z,1.42
2023-05-19T13:58:41.320Z,1.05
2023-05-19T14:01:07.916Z,1.00
2023-05-19T14:03:34.760Z,1.10
2023-05-19T14:06:02.992Z,1.02
2023-05-19T14:08:29.637Z,1.00
2023-05-19T14:10:56.341Z,0.93
2023-05-19T14:13:31.431Z,1.42
2023-05-19T14:15:59.651Z,0.90
2023-05-19T14:18:26.298Z,1.20
2023-05-19T14:20:52.876Z,1.10
2023-05-19T14:23:20.785Z,1.40
2023-05-19T14:25:47.486Z,1.42
2023-05-19T14:28:14.056Z,1.00
2023-05-19T14:30:40.670Z,0.98
2023-05-19T14:33:07.751Z,1.00
2023-05-19T14:35:34.388Z,1.17
2023-05-19T14:38:00.926Z,1.20
2023-05-19T14:40:30.259Z,1.10
2023-05-19T14:42:56.948Z,1.13
2023-05-19T14:45:23.541Z,0.90
2023-05-19T14:47:50.211Z,1.20
2023-05-19T14:50:16.780Z,1.00
2023-05-19T14:52:43.361Z,1.80
2023-05-19T14:55:12.658Z,1.05
2023-05-19T14:57:40.588Z,1.25
2023-05-19T15:00:08.186Z,1.00
2023-05-19T15:02:34.794Z,1.10
2023-05-19T15:05:01.693Z,1.10
2023-05-19T15:07:28.279Z,2.33
2023-05-19T15:09:55.084Z,1.20
2023-05-19T15:12:21.699Z,1.13
2023-05-19T15:14:49.884Z,1.17
2023-05-19T15:17:16.504Z,1.10
2023-05-19T15:19:43.126Z,1.20
2023-05-19T15:22:09.878Z,1.10
2023-05-19T15:24:36.499Z,1.45
2023-05-19T15:27:03.251Z,1.00
2023-05-19T15:29:29.794Z,1.20
2023-05-19T15:31:57.952Z,1.42
2023-05-19T15:34:24.569Z,1.30
2023-05-19T15:36:51.133Z,1.00
2023-05-19T15:39:17.733Z,1.10
2023-05-19T15:41:44.329Z,1.35
2023-05-19T15:44:11.308Z,1.25
2023-05-19T15:46:37.995Z,1.30
2023-05-19T15:49:05.922Z,1.08
2023-05-19T15:51:32.646Z,1.17
2023-05-19T15:53:59.255Z,1.58
2023-05-19T15:56:25.834Z,1.50
2023-05-19T15:58:52.406Z,0.98
2023-05-19T16:01:19.169Z,1.15
2023-05-19T16:03:46.009Z,1.45
2023-05-19T16:06:14.377Z,1.30
2023-05-19T16:08:40.973Z,1.45
2023-05-19T16:11:07.516Z,1.50
2023-05-19T16:13:34.162Z,1.30
2023-05-19T16:16:00.930Z,1.08
2023-05-19T16:18:27.805Z,1.30
2023-05-19T16:20:54.502Z,1.25
2023-05-19T16:23:22.454Z,1.30
2023-05-19T16:25:48.990Z,1.40
2023-05-19T16:28:15.530Z,1.20
2023-05-19T16:30:42.608Z,1.55
2023-05-19T16:33:09.239Z,1.05
2023-05-19T16:35:35.886Z,1.20
2023-05-19T16:38:02.783Z,2.22
2023-05-19T16:40:31.040Z,0.95
2023-05-19T16:42:57.789Z,1.55
2023-05-19T16:45:24.389Z,1.20
2023-05-19T16:47:51.008Z,1.15
2023-05-19T16:50:17.684Z,1.30
2023-05-19T16:52:44.274Z,1.27
2023-05-19T16:55:10.880Z,1.20
2023-05-19T16:57:38.837Z,1.33
2023-05-19T17:00:06.711Z,1.30
2023-05-19T17:02:33.435Z,1.30
2023-05-19T17:05:00.039Z,1.30
2023-05-19T17:07:27.717Z,1.20
2023-05-19T17:09:55.999Z,1.25
2023-05-19T17:12:22.772Z,1.25
2023-05-19T17:14:50.872Z,1.00
2023-05-19T17:17:17.827Z,1.30
2023-05-19T17:19:44.454Z,1.42
2023-05-19T17:22:12.338Z,1.33
2023-05-19T17:24:38.976Z,1.10
2023-05-19T17:27:05.617Z,1.50
2023-05-19T17:29:32.492Z,1.30
2023-05-19T17:32:01.556Z,1.20
2023-05-19T17:34:28.178Z,1.30
2023-05-19T17:36:55.070Z,1.10
2023-05-19T17:39:21.791Z,1.30
2023-05-19T17:41:48.359Z,1.20
2023-05-19T17:44:15.108Z,1.60
2023-05-19T17:46:41.963Z,1.20
2023-05-19T17:49:09.919Z,1.15
2023-05-19T17:51:37.597Z,1.40
2023-05-19T17:54:05.072Z,1.10
2023-05-19T17:56:33.918Z,1.38
2023-05-19T17:59:00.882Z,1.15
2023-05-19T18:01:27.953Z,1.00
2023-05-19T18:03:55.793Z,1.25
2023-05-19T18:06:25.764Z,1.50
2023-05-19T18:08:55.206Z,1.15
2023-05-19T18:11:22.383Z,1.30
2023-05-19T18:13:49.300Z,1.00
2023-05-19T18:16:16.427Z,1.85
2023-05-19T18:18:45.799Z,1.35
2023-05-19T18:21:12.418Z,1.50
2023-05-19T18:23:40.515Z,1.30
2023-05-19T18:26:07.192Z,1.35
2023-05-19T18:28:33.853Z,1.42
2023-05-19T18:31:00.685Z,1.13
2023-05-19T18:33:28.573Z,1.30
2023-05-19T18:35:57.306Z,1.13
2023-05-19T18:38:23.899Z,0.98
2023-05-19T18:40:52.400Z,1.20
2023-05-19T18:43:19.417Z,1.42
2023-05-19T18:45:47.008Z,1.05
2023-05-19T18:48:15.932Z,1.20
2023-05-19T18:50:42.676Z,1.42
2023-05-19T18:53:09.249Z,1.10
2023-05-19T18:55:39.989Z,1.15
2023-05-19T18:58:08.359Z,1.45
2023-05-19T19:00:38.059Z,1.30
2023-05-19T19:03:05.051Z,1.33
2023-05-19T19:05:31.667Z,1.20
2023-05-19T19:07:59.366Z,1.23
2023-05-19T19:10:26.234Z,1.20
2023-05-19T19:12:54.319Z,1.00
2023-05-19T19:15:23.371Z,1.00
2023-05-19T19:17:53.464Z,1.10
2023-05-19T19:20:20.118Z,1.35
2023-05-19T19:22:46.969Z,1.10
2023-05-19T19:25:13.827Z,1.33
2023-05-19T19:27:40.505Z,1.08
2023-05-19T19:30:10.175Z,1.27
2023-05-19T19:32:38.147Z,1.20
2023-05-19T19:35:05.502Z,1.10
2023-05-19T19:37:32.125Z,1.40
2023-05-19T19:40:00.932Z,1.45
2023-05-19T19:42:27.549Z,1.58
2023-05-19T19:44:55.044Z,1.13
2023-05-19T19:47:22.230Z,1.40
2023-05-19T19:49:50.416Z,1.30
2023-05-19T19:52:17.033Z,1.15
2023-05-19T19:54:43.630Z,2.75
2023-05-19T19:57:10.231Z,1.30
2023-05-19T19:59:37.153Z,1.50
2023-05-19T20:02:04.175Z,1.27
2023-05-19T20:04:30.870Z,1.65
2023-05-19T20:06:59.222Z,1.48
2023-05-19T20:09:29.226Z,1.70
2023-05-19T20:11:55.769Z,1.65
2023-05-19T20:14:22.583Z,1.63
2023-05-19T20:16:50.326Z,1.60
2023-05-19T20:19:17.112Z,1.70
2023-05-19T20:21:43.672Z,1.70
2023-05-19T20:24:11.722Z,1.73
2023-05-19T20:26:38.294Z,1.65
2023-05-19T20:29:04.821Z,2.55
2023-05-19T20:31:31.360Z,1.67
2023-05-19T20:34:01.824Z,1.83
2023-05-19T20:36:28.598Z,1.67
2023-05-19T20:38:55.404Z,1.92
2023-05-19T20:41:23.642Z,1.90
2023-05-19T20:43:50.491Z,1.50
2023-05-19T20:46:17.209Z,1.70
2023-05-19T20:48:45.054Z,1.80
2023-05-19T20:51:11.971Z,1.70
2023-05-19T20:53:38.540Z,1.60
2023-05-19T20:56:05.629Z,1.48
2023-05-19T20:58:33.591Z,1.88
2023-05-19T21:01:00.241Z,1.60
2023-05-19T21:03:27.152Z,1.50
2023-05-19T21:05:54.554Z,1.70
2023-05-19T21:08:21.390Z,1.60
2023-05-19T21:10:49.578Z,1.75
2023-05-19T21:13:16.401Z,1.52
2023-05-19T21:15:45.561Z,1.65
2023-05-19T21:18:12.673Z,1.73
2023-05-19T21:20:39.817Z,1.70
2023-05-19T21:23:07.701Z,1.77
2023-05-19T21:25:34.631Z,1.85
2023-05-19T21:28:01.490Z,2.00
2023-05-19T21:30:28.359Z,2.10
2023-05-19T21:32:56.408Z,2.30
2023-05-19T21:35:23.073Z,2.20
2023-05-19T21:37:49.932Z,1.80
2023-05-19T21:40:16.610Z,1.90
2023-05-19T21:42:43.316Z,2.15
2023-05-19T21:45:11.136Z,1.95
2023-05-19T21:47:37.811Z,2.08
2023-05-19T21:50:07.886Z,2.65
2023-05-19T21:52:34.447Z,1.90
2023-05-19T21:55:01.029Z,2.03
2023-05-19T21:57:27.576Z,1.98
2023-05-19T21:59:54.091Z,2.25
2023-05-19T22:02:20.756Z,2.40
2023-05-19T22:04:47.408Z,2.20
2023-05-19T22:07:15.392Z,2.50
2023-05-19T22:09:42.058Z,2.15
2023-05-19T22:12:08.723Z,2.35
2023-05-19T22:14:35.423Z,2.05
2023-05-19T22:17:02.012Z,3.30
2023-05-19T22:19:28.715Z,2.30
2023-05-19T22:22:02.033Z,2.15
2023-05-19T22:24:38.634Z,2.55
2023-05-19T22:27:07.404Z,2.20
2023-05-19T22:29:33.989Z,2.35
2023-05-19T22:32:00.627Z,2.55
2023-05-19T22:34:27.333Z,2.63
2023-05-19T22:36:54.024Z,2.42
2023-05-19T22:39:20.622Z,2.20
2023-05-19T22:41:48.526Z,2.00
2023-05-19T22:44:15.165Z,1.75
2023-05-19T22:46:41.808Z,2.10
2023-05-19T22:49:08.415Z,2.15
2023-05-19T22:51:35.262Z,2.15
2023-05-19T22:54:01.980Z,2.08
2023-05-19T22:56:28.543Z,2.50
2023-05-19T22:58:56.575Z,2.20
2023-05-19T23:01:23.198Z,2.33
2023-05-19T23:03:49.877Z,2.03
2023-05-19T23:06:16.457Z,1.92
2023-05-19T23:08:46.631Z,2.08
2023-05-19T23:11:13.356Z,2.30
2023-05-19T23:13:39.914Z,2.15
2023-05-19T23:16:07.878Z,2.30
2023-05-19T23:18:34.441Z,1.92
2023-05-19T23:21:00.999Z,2.30
2023-05-19T23:23:29.230Z,2.15
2023-05-19T23:25:55.897Z,2.17
2023-05-19T23:28:22.737Z,2.03
2023-05-19T23:30:52.556Z,2.10
2023-05-19T23:33:20.648Z,2.38
2023-05-19T23:35:47.340Z,2.17
2023-05-19T23:38:14.098Z,2.50
2023-05-19T23:40:40.675Z,2.03
2023-05-19T23:43:07.428Z,2.10
2023-05-19T23:45:34.227Z,2.47
2023-05-19T23:48:01.014Z,2.45
2023-05-19T23:50:29.075Z,2.72
2023-05-19T23:52:55.702Z,2.70
2023-05-19T23:55:22.285Z,2.22
2023-05-19T23:57:48.935Z,2.25
